createdAt,value
2022-12-22T00:09:30.018Z,0.50
2022-12-22T00:12:15.554Z,0.50
2022-12-22T00:15:02.608Z,0.50
2022-12-22T00:17:48.708Z,0.50
2022-12-22T01:11:14.195Z,0.30
2022-12-22T01:14:00.044Z,0.20
2022-12-22T01:16:45.469Z,0.20
2022-12-22T01:19:31.133Z,0.10
2022-12-22T01:22:17.177Z,0.20
2022-12-22T01:25:04.157Z,0.20
2022-12-22T01:27:49.904Z,0.20
2022-12-22T01:30:35.438Z,0.20
2022-12-22T01:33:20.930Z,0.10
2022-12-22T01:36:06.271Z,0.00
2022-12-22T01:38:51.693Z,-0.10
2022-12-22T01:41:40.108Z,-0.20
2022-12-22T01:44:36.309Z,-0.20
2022-12-22T01:47:46.909Z,-0.20
2022-12-22T01:50:39.179Z,-0.30
2022-12-22T01:53:29.305Z,-0.30
2022-12-22T01:56:16.149Z,-0.30
2022-12-22T01:59:05.358Z,-0.30
2022-12-22T02:01:51.605Z,-0.30
2022-12-22T02:04:38.621Z,-0.20
2022-12-22T02:07:37.771Z,-0.30
2022-12-22T02:10:57.747Z,-0.30
2022-12-22T02:14:17.392Z,-0.30
2022-12-22T02:17:16.187Z,-0.30
2022-12-22T02:20:39.854Z,-0.30
2022-12-22T02:24:03.638Z,-0.20
2022-12-22T02:27:00.255Z,-0.20
2022-12-22T02:29:58.712Z,-0.10
2022-12-22T02:32:44.679Z,-0.10
2022-12-22T02:35:35.421Z,-0.20
2022-12-22T02:38:59.459Z,-0.20
2022-12-22T02:42:12.584Z,-0.20
2022-12-22T02:45:11.294Z,-0.20
2022-12-22T02:48:14.012Z,-0.20
2022-12-22T02:51:09.588Z,-0.20
2022-12-22T02:53:57.459Z,-0.20
2022-12-22T02:56:43.415Z,-0.20
2022-12-22T02:59:29.741Z,-0.10
2022-12-22T03:02:16.028Z,-0.10
2022-12-22T03:05:01.740Z,-0.20
2022-12-22T03:07:47.279Z,-0.20
2022-12-22T03:10:32.999Z,-0.20
2022-12-22T03:13:19.302Z,-0.10
2022-12-22T03:16:05.692Z,-0.10
2022-12-22T03:18:51.046Z,0.00
2022-12-22T03:21:36.703Z,0.10
2022-12-22T03:24:22.232Z,0.10
2022-12-22T03:26:49.179Z,0.20
2022-12-22T03:29:16.060Z,0.20
2022-12-22T03:31:43.427Z,0.20
2022-12-22T03:34:10.374Z,0.10
2022-12-22T03:36:37.264Z,0.10
2022-12-22T03:39:04.293Z,0.00
2022-12-22T03:41:50.469Z,-0.10
2022-12-22T03:44:49.513Z,-0.10
2022-12-22T03:47:16.428Z,-0.20
2022-12-22T03:49:53.380Z,-0.20
2022-12-22T03:52:20.456Z,-0.30
2022-12-22T03:54:47.416Z,-0.30
2022-12-22T03:57:14.362Z,-0.30
2022-12-22T03:59:41.395Z,-0.20
2022-12-22T04:02:08.412Z,-0.30
2022-12-22T04:04:38.514Z,-0.20
2022-12-22T04:07:05.561Z,-0.20
2022-12-22T04:09:33.004Z,-0.10
2022-12-22T04:12:18.592Z,0.00
2022-12-22T04:14:45.606Z,0.00
2022-12-22T04:17:12.784Z,0.10
2022-12-22T04:19:39.664Z,0.10
2022-12-22T04:22:07.302Z,0.00
2022-12-22T04:24:34.382Z,0.00
2022-12-22T04:27:02.377Z,0.00
2022-12-22T04:29:29.207Z,0.00
2022-12-22T04:31:56.160Z,0.00
2022-12-22T04:34:23.256Z,0.10
2022-12-22T04:36:50.039Z,0.20
2022-12-22T04:39:18.090Z,0.20
2022-12-22T04:41:46.256Z,0.20
2022-12-22T04:44:13.107Z,0.30
2022-12-22T04:46:40.080Z,0.30
2022-12-22T04:49:06.953Z,0.40
2022-12-22T04:51:33.897Z,0.60
2022-12-22T04:54:00.911Z,0.60
2022-12-22T04:56:28.151Z,0.60
2022-12-22T04:58:55.079Z,0.60
2022-12-22T05:01:22.275Z,0.60
2022-12-22T05:03:49.498Z,0.70
2022-12-22T05:06:16.677Z,0.60
2022-12-22T05:08:43.705Z,0.60
2022-12-22T05:11:10.737Z,0.60
2022-12-22T05:13:38.365Z,0.60
2022-12-22T05:16:15.010Z,0.50
2022-12-22T05:18:44.253Z,0.60
2022-12-22T05:21:17.332Z,0.60
2022-12-22T05:23:44.751Z,0.70
2022-12-22T05:26:12.045Z,0.70
2022-12-22T05:28:39.128Z,0.70
2022-12-22T05:31:08.943Z,0.70
2022-12-22T05:33:36.638Z,0.70
2022-12-22T05:36:03.924Z,0.70
2022-12-22T05:38:30.976Z,0.70
2022-12-22T05:41:03.569Z,0.60
2022-12-22T05:43:32.393Z,0.60
2022-12-22T05:46:05.914Z,0.70
2022-12-22T05:48:37.935Z,0.70
2022-12-22T05:51:07.247Z,0.70
2022-12-22T05:53:34.373Z,0.70
2022-12-22T05:56:01.368Z,0.70
2022-12-22T05:58:28.334Z,0.80
2022-12-22T06:00:59.652Z,0.90
2022-12-22T06:03:27.841Z,0.90
2022-12-22T06:05:55.323Z,0.80
2022-12-22T06:08:22.395Z,0.80
2022-12-22T06:10:49.448Z,0.90
2022-12-22T06:13:16.474Z,0.90
2022-12-22T06:15:43.437Z,1.00
2022-12-22T06:18:10.326Z,1.00
2022-12-22T06:20:37.226Z,1.00
2022-12-22T06:23:04.365Z,1.00
2022-12-22T06:25:31.365Z,0.90
2022-12-22T06:27:58.213Z,0.90
2022-12-22T06:30:32.710Z,0.90
2022-12-22T06:33:00.911Z,0.90
2022-12-22T06:35:28.247Z,0.90
2022-12-22T06:37:55.219Z,0.80
2022-12-22T06:40:22.079Z,0.90
2022-12-22T06:43:09.042Z,0.90
2022-12-22T06:45:42.142Z,0.70
2022-12-22T06:48:10.392Z,0.70
2022-12-22T06:50:37.365Z,0.70
2022-12-22T06:53:04.927Z,0.60
2022-12-22T06:55:31.890Z,0.60
2022-12-22T06:57:58.685Z,0.60
2022-12-22T07:00:25.712Z,0.60
2022-12-22T07:02:52.908Z,0.60
2022-12-22T07:05:20.016Z,0.60
2022-12-22T07:07:46.881Z,0.60
2022-12-22T07:10:13.778Z,0.50
2022-12-22T07:12:40.746Z,0.60
2022-12-22T07:15:08.940Z,0.60
2022-12-22T07:17:35.903Z,0.60
2022-12-22T07:20:02.841Z,0.50
2022-12-22T07:22:31.008Z,0.50
2022-12-22T07:24:58.577Z,0.50
2022-12-22T07:27:25.617Z,0.50
2022-12-22T07:29:52.425Z,0.50
2022-12-22T07:32:19.253Z,0.60
2022-12-22T07:34:46.217Z,0.60
2022-12-22T07:37:13.803Z,0.60
2022-12-22T07:39:40.934Z,0.60
2022-12-22T07:42:29.317Z,0.60
2022-12-22T07:44:56.372Z,0.50
2022-12-22T07:47:23.220Z,0.50
2022-12-22T07:50:08.827Z,0.40
2022-12-22T07:52:35.588Z,0.50
2022-12-22T07:55:02.456Z,0.50
2022-12-22T07:57:29.421Z,0.50
2022-12-22T07:59:56.184Z,0.50
2022-12-22T08:02:23.100Z,0.50
2022-12-22T08:04:50.162Z,0.50
2022-12-22T08:07:17.107Z,0.50
2022-12-22T08:09:44.052Z,0.50
2022-12-22T08:12:10.925Z,0.60
2022-12-22T08:14:37.747Z,0.60
2022-12-22T08:17:04.645Z,0.60
2022-12-22T08:19:32.915Z,0.60
2022-12-22T08:22:00.819Z,0.60
2022-12-22T08:24:27.731Z,0.50
2022-12-22T08:27:03.333Z,0.60
2022-12-22T08:29:34.852Z,0.60
2022-12-22T08:32:02.294Z,0.60
2022-12-22T08:34:29.185Z,0.70
2022-12-22T08:36:59.626Z,0.70
2022-12-22T08:39:28.888Z,0.70
2022-12-22T08:41:55.738Z,0.60
2022-12-22T08:44:28.430Z,0.60
2022-12-22T08:46:58.351Z,0.50
2022-12-22T08:49:26.437Z,0.60
2022-12-22T08:51:53.768Z,0.50
2022-12-22T08:54:20.791Z,0.50
2022-12-22T08:56:47.640Z,0.60
2022-12-22T08:59:14.407Z,0.60
2022-12-22T09:01:44.489Z,0.70
2022-12-22T09:04:16.621Z,0.70
2022-12-22T09:06:43.678Z,0.70
2022-12-22T09:09:13.489Z,0.70
2022-12-22T09:11:41.089Z,0.70
2022-12-22T09:14:09.379Z,0.70
2022-12-22T09:16:36.957Z,0.70
2022-12-22T09:19:04.428Z,0.60
2022-12-22T09:21:31.279Z,0.60
2022-12-22T09:23:58.877Z,0.50
2022-12-22T09:26:27.566Z,0.50
2022-12-22T09:28:55.644Z,0.50
2022-12-22T09:31:24.130Z,0.50
2022-12-22T09:33:51.189Z,0.50
2022-12-22T09:36:21.730Z,0.50
2022-12-22T09:38:49.156Z,0.50
2022-12-22T09:41:28.757Z,0.50
2022-12-22T09:43:56.134Z,0.60
2022-12-22T09:46:29.448Z,0.60
2022-12-22T09:48:56.793Z,0.60
2022-12-22T09:51:27.056Z,0.50
2022-12-22T09:54:04.047Z,0.50
2022-12-22T09:56:31.131Z,0.60
2022-12-22T09:58:58.336Z,0.50
2022-12-22T10:01:50.284Z,0.50
2022-12-22T10:04:49.126Z,0.50
2022-12-22T10:07:23.230Z,0.50
2022-12-22T10:09:51.459Z,0.50
2022-12-22T10:12:22.902Z,0.50
2022-12-22T10:14:53.805Z,0.60
2022-12-22T10:17:23.377Z,0.60
2022-12-22T10:19:53.217Z,0.60
2022-12-22T10:22:32.372Z,0.80
2022-12-22T10:25:02.219Z,0.70
2022-12-22T10:27:32.409Z,0.70
2022-12-22T10:30:23.532Z,0.70
2022-12-22T10:33:13.835Z,0.70
2022-12-22T10:35:47.138Z,0.80
2022-12-22T10:38:23.022Z,0.80
2022-12-22T10:40:58.362Z,0.80
2022-12-22T10:43:35.611Z,0.90
2022-12-22T10:46:04.113Z,0.90
2022-12-22T10:48:38.473Z,1.00
2022-12-22T10:51:10.187Z,1.00
2022-12-22T10:53:50.952Z,0.90
2022-12-22T10:56:23.418Z,0.80
2022-12-22T10:58:55.775Z,0.80
2022-12-22T11:01:34.474Z,0.80
2022-12-22T11:04:25.811Z,0.70
2022-12-22T11:06:55.474Z,0.70
2022-12-22T11:09:37.937Z,0.70
2022-12-22T11:12:49.050Z,0.60
2022-12-22T11:15:27.594Z,0.60
2022-12-22T11:18:04.226Z,0.70
2022-12-22T11:20:47.837Z,0.70
2022-12-22T11:23:27.587Z,0.70
2022-12-22T11:26:15.854Z,0.80
2022-12-22T11:29:18.666Z,0.80
2022-12-22T11:32:01.665Z,0.80
2022-12-22T11:34:37.349Z,0.80
2022-12-22T11:37:38.729Z,0.80
2022-12-22T11:40:14.382Z,0.90
2022-12-22T11:42:55.329Z,1.00
2022-12-22T11:45:51.021Z,1.00
2022-12-22T12:01:16.280Z,0.90
2022-12-22T12:04:12.454Z,0.80
2022-12-22T12:06:48.203Z,0.80
2022-12-22T12:09:41.888Z,0.80
2022-12-22T12:12:30.467Z,0.80
2022-12-22T12:15:20.851Z,0.70
2022-12-22T12:18:19.868Z,0.70
2022-12-22T12:21:02.636Z,0.60
2022-12-22T12:24:11.764Z,0.60
2022-12-22T12:26:57.400Z,0.60
2022-12-22T12:29:29.184Z,0.60
2022-12-22T12:32:07.489Z,0.50
2022-12-22T12:34:37.595Z,0.40
2022-12-22T12:37:12.805Z,0.40
2022-12-22T12:40:21.390Z,0.50
2022-12-22T12:42:49.159Z,0.50
2022-12-22T12:45:42.505Z,0.50
2022-12-22T12:48:21.975Z,0.40
2022-12-22T12:50:53.427Z,0.50
2022-12-22T12:53:25.453Z,0.50
2022-12-22T12:55:55.455Z,0.50
2022-12-22T12:58:40.294Z,0.50
2022-12-22T13:01:55.409Z,0.40
2022-12-22T13:05:03.853Z,0.40
2022-12-22T13:08:10.140Z,0.40
2022-12-22T13:10:39.965Z,0.30
2022-12-22T13:13:10.507Z,0.30
2022-12-22T13:15:40.781Z,0.30
2022-12-22T13:18:33.683Z,0.40
2022-12-22T13:24:25.809Z,0.40
2022-12-22T13:26:55.612Z,0.50
2022-12-22T13:29:22.376Z,0.50
2022-12-22T13:32:02.463Z,0.50
2022-12-22T13:35:28.934Z,0.40
2022-12-22T13:37:48.206Z,0.50
2022-12-22T13:40:15.134Z,0.50
2022-12-22T13:43:03.237Z,0.40
2022-12-22T13:45:41.102Z,0.50
2022-12-22T13:48:29.073Z,0.40
2022-12-22T13:50:59.581Z,0.50
2022-12-22T13:54:07.690Z,0.40
2022-12-22T13:56:26.053Z,0.40
2022-12-22T13:58:59.500Z,0.50
2022-12-22T14:01:26.950Z,0.50
2022-12-22T14:04:04.441Z,0.40
2022-12-22T14:06:36.121Z,0.50
2022-12-22T14:09:23.226Z,0.40
2022-12-22T14:12:02.352Z,0.50
2022-12-22T14:14:35.116Z,0.50
2022-12-22T14:17:02.804Z,0.60
2022-12-22T14:19:36.053Z,0.60
2022-12-22T14:22:14.423Z,0.70
2022-12-22T14:24:44.336Z,0.70
2022-12-22T14:27:35.987Z,0.70
2022-12-22T14:30:06.279Z,0.70
2022-12-22T14:32:45.763Z,0.80
2022-12-22T14:35:20.703Z,0.80
2022-12-22T14:38:19.327Z,0.80
2022-12-22T14:40:49.777Z,0.70
2022-12-22T14:43:24.407Z,0.70
2022-12-22T14:46:00.265Z,0.80
2022-12-22T14:48:35.021Z,0.70
2022-12-22T14:51:02.996Z,0.70
2022-12-22T14:53:54.202Z,0.60
2022-12-22T14:56:22.272Z,0.60
2022-12-22T14:58:49.907Z,0.60
2022-12-22T15:01:16.766Z,0.50
2022-12-22T15:03:44.752Z,0.50
2022-12-22T15:06:27.008Z,0.40
2022-12-22T15:09:12.097Z,0.30
2022-12-22T15:11:48.004Z,0.30
2022-12-22T15:14:24.144Z,0.20
2022-12-22T15:16:55.120Z,0.20
2022-12-22T15:19:25.365Z,0.20
2022-12-22T15:21:52.156Z,0.30
2022-12-22T15:24:19.270Z,0.30
2022-12-22T15:26:46.787Z,0.30
2022-12-22T15:29:14.340Z,0.30
2022-12-22T15:31:42.791Z,0.40
2022-12-22T15:34:24.311Z,0.40
2022-12-22T15:36:51.405Z,0.50
2022-12-22T15:39:20.055Z,0.50
2022-12-22T15:41:47.313Z,0.40
2022-12-22T15:44:15.103Z,0.30
2022-12-22T15:46:44.685Z,0.30
2022-12-22T15:49:19.886Z,0.20
2022-12-22T15:51:51.404Z,0.20
2022-12-22T15:54:19.178Z,0.10
2022-12-22T15:56:47.183Z,0.20
2022-12-22T15:59:21.022Z,0.20
2022-12-22T16:01:48.046Z,0.20
2022-12-22T16:04:14.958Z,0.10
2022-12-22T16:06:41.856Z,0.20
2022-12-22T16:09:18.921Z,0.10
2022-12-22T16:11:45.958Z,0.10
2022-12-22T16:14:13.437Z,0.10
2022-12-22T16:16:41.630Z,0.10
2022-12-22T16:19:18.769Z,0.10
2022-12-22T16:21:48.737Z,0.10
2022-12-22T16:24:24.477Z,0.10
2022-12-22T16:26:51.364Z,0.10
2022-12-22T16:29:18.211Z,0.00
2022-12-22T16:31:45.250Z,0.00
2022-12-22T16:34:13.001Z,-0.10
2022-12-22T16:36:39.795Z,0.00
2022-12-22T16:39:07.213Z,-0.10
2022-12-22T16:41:34.319Z,0.00
2022-12-22T16:46:46.681Z,0.00
2022-12-22T16:49:22.962Z,0.10
2022-12-22T16:51:54.542Z,0.20
2022-12-22T16:54:21.382Z,0.30
2022-12-22T16:56:51.186Z,0.30
2022-12-22T16:59:18.929Z,0.40
2022-12-22T17:02:04.495Z,0.40
2022-12-22T17:04:32.569Z,0.30
2022-12-22T17:07:02.034Z,0.40
2022-12-22T17:09:53.849Z,0.40
2022-12-22T17:12:34.137Z,0.50
2022-12-22T17:15:02.182Z,0.50
2022-12-22T17:17:35.400Z,0.50
2022-12-22T17:20:06.206Z,0.40
2022-12-22T17:22:34.271Z,0.40
2022-12-22T17:25:02.199Z,0.40
2022-12-22T17:27:33.573Z,0.30
2022-12-22T17:30:03.508Z,0.30
2022-12-22T17:32:30.285Z,0.30
2022-12-22T17:34:57.058Z,0.30
2022-12-22T17:37:24.245Z,0.30
2022-12-22T17:39:56.456Z,0.30
2022-12-22T17:42:24.497Z,0.30
2022-12-22T17:44:51.972Z,0.20
2022-12-22T17:47:31.221Z,0.20
2022-12-22T17:49:59.208Z,0.20
2022-12-22T17:52:28.025Z,0.20
2022-12-22T17:54:55.212Z,0.20
2022-12-22T17:57:29.739Z,0.20
2022-12-22T17:59:56.665Z,0.20
2022-12-22T18:02:25.609Z,0.30
2022-12-22T18:04:53.345Z,0.30
2022-12-22T18:07:22.879Z,0.30
2022-12-22T18:09:53.067Z,0.30
2022-12-22T18:12:23.092Z,0.30
2022-12-22T18:14:50.310Z,0.30
2022-12-22T18:17:35.229Z,0.20
2022-12-22T18:20:03.420Z,0.00
2022-12-22T18:22:30.765Z,0.00
2022-12-22T18:24:57.971Z,-0.10
2022-12-22T18:27:24.849Z,-0.20
2022-12-22T18:29:51.968Z,-0.20
2022-12-22T18:32:27.191Z,-0.30
2022-12-22T18:34:54.864Z,-0.30
2022-12-22T18:37:21.748Z,-0.40
2022-12-22T18:39:48.553Z,-0.40
2022-12-22T18:42:20.953Z,-0.40
2022-12-22T18:44:48.908Z,-0.40
2022-12-22T18:47:16.083Z,-0.40
2022-12-22T18:49:43.790Z,-0.40
2022-12-22T18:52:19.004Z,-0.40
2022-12-22T18:54:46.474Z,-0.40
2022-12-22T18:57:15.796Z,-0.40
2022-12-22T18:59:42.887Z,-0.40
2022-12-22T19:02:21.608Z,-0.50
2022-12-22T19:04:50.323Z,-0.40
2022-12-22T19:07:19.828Z,-0.50
2022-12-22T19:09:47.177Z,-0.50
2022-12-22T19:12:18.875Z,-0.50
2022-12-22T19:14:49.300Z,-0.40
2022-12-22T19:17:20.084Z,-0.40
2022-12-22T19:19:47.402Z,-0.50
2022-12-22T19:22:15.904Z,-0.50
2022-12-22T19:24:46.159Z,-0.40
2022-12-22T19:27:27.714Z,-0.50
2022-12-22T19:30:03.095Z,-0.60
2022-12-22T19:32:38.576Z,-0.60
2022-12-22T19:35:13.064Z,-0.70
2022-12-22T19:37:39.931Z,-0.70
2022-12-22T19:40:07.453Z,-0.70
2022-12-22T19:42:35.492Z,-0.70
2022-12-22T19:45:10.284Z,-0.70
2022-12-22T19:47:37.226Z,-0.70
2022-12-22T19:50:04.312Z,-0.70
2022-12-22T19:52:31.272Z,-0.70
2022-12-22T19:54:58.042Z,-0.60
2022-12-22T19:57:24.944Z,-0.60
2022-12-22T19:59:54.224Z,-0.60
2022-12-22T20:02:21.307Z,-0.60
2022-12-22T20:04:49.624Z,-0.70
2022-12-22T20:07:18.521Z,-0.70
2022-12-22T20:09:45.590Z,-0.80
2022-12-22T20:12:24.683Z,-0.80
2022-12-22T20:14:53.109Z,-0.80
2022-12-22T20:17:20.730Z,-0.80
2022-12-22T20:19:47.609Z,-0.80
2022-12-22T20:22:17.188Z,-0.80
2022-12-22T20:24:45.774Z,-0.80
2022-12-22T20:27:24.604Z,-0.90
2022-12-22T20:29:51.393Z,-0.80
2022-12-22T20:32:23.858Z,-0.90
2022-12-22T20:34:54.455Z,-0.80
2022-12-22T20:37:21.205Z,-0.80
2022-12-22T20:39:47.965Z,-0.80
2022-12-22T20:42:20.225Z,-0.90
2022-12-22T20:45:02.298Z,-0.90
2022-12-22T20:47:32.831Z,-0.90
2022-12-22T20:49:59.703Z,-0.90
2022-12-22T20:52:26.874Z,-0.80
2022-12-22T20:54:53.722Z,-0.80
2022-12-22T20:57:22.772Z,-0.70
2022-12-22T20:59:55.599Z,-0.80
2022-12-22T21:02:27.755Z,-0.90
2022-12-22T21:04:55.350Z,-0.90
2022-12-22T21:07:22.236Z,-0.90
2022-12-22T21:09:49.266Z,-0.90
2022-12-22T21:12:16.069Z,-0.90
2022-12-22T21:14:42.923Z,-1.10
2022-12-22T21:17:17.048Z,-1.20
2022-12-22T21:19:44.134Z,-1.30
2022-12-22T21:22:11.396Z,-1.40
2022-12-22T21:24:38.527Z,-1.30
2022-12-22T21:27:05.487Z,-1.30
2022-12-22T21:29:32.487Z,-1.40
2022-12-22T21:31:59.303Z,-1.50
2022-12-22T21:34:26.061Z,-1.60
2022-12-22T21:36:59.668Z,-1.60
2022-12-22T21:39:37.594Z,-1.70
2022-12-22T21:42:05.173Z,-1.70
2022-12-22T21:44:34.160Z,-1.70
2022-12-22T21:47:01.554Z,-1.70
2022-12-22T21:49:30.594Z,-1.70
2022-12-22T21:51:57.615Z,-1.80
2022-12-22T21:54:25.522Z,-1.90
2022-12-22T21:56:53.733Z,-1.90
2022-12-22T21:59:21.112Z,-2.00
2022-12-22T22:01:48.328Z,-2.00
2022-12-22T22:04:15.431Z,-2.00
2022-12-22T22:06:42.205Z,-2.10
2022-12-22T22:09:09.494Z,-2.10
2022-12-22T22:11:59.166Z,-2.10
2022-12-22T22:14:27.252Z,-2.00
2022-12-22T22:16:53.990Z,-1.90
2022-12-22T22:19:20.874Z,-1.90
2022-12-22T22:21:48.002Z,-1.90
2022-12-22T22:24:14.830Z,-1.90
2022-12-22T22:26:43.846Z,-1.90
2022-12-22T22:29:10.748Z,-1.90
2022-12-22T22:31:37.621Z,-1.90
2022-12-22T22:34:04.496Z,-1.90
2022-12-22T22:36:31.336Z,-1.90
2022-12-22T22:38:58.164Z,-1.90
2022-12-22T22:41:26.234Z,-1.90
2022-12-22T22:43:55.866Z,-2.00
2022-12-22T22:46:23.122Z,-2.00
2022-12-22T22:48:50.347Z,-2.10
2022-12-22T22:51:17.299Z,-2.10
2022-12-22T22:53:44.217Z,-2.10
2022-12-22T22:56:10.969Z,-2.10
2022-12-22T22:58:37.817Z,-2.20
2022-12-22T23:01:09.748Z,-2.20
2022-12-22T23:03:37.732Z,-2.30
2022-12-22T23:06:07.490Z,-2.30
2022-12-22T23:08:35.359Z,-2.40
2022-12-22T23:11:03.833Z,-2.50
2022-12-22T23:13:31.433Z,-2.50
2022-12-22T23:16:03.101Z,-2.50
2022-12-22T23:18:31.607Z,-2.50
2022-12-22T23:20:59.908Z,-2.60
2022-12-22T23:23:27.173Z,-2.60
2022-12-22T23:25:54.100Z,-2.60
2022-12-22T23:28:21.425Z,-2.50
2022-12-22T23:30:50.677Z,-2.40
2022-12-22T23:33:18.337Z,-2.40
2022-12-22T23:35:48.451Z,-2.40
2022-12-22T23:38:16.526Z,-2.50
2022-12-22T23:40:52.865Z,-2.40
2022-12-22T23:43:21.498Z,-2.50
2022-12-22T23:45:48.595Z,-2.50
2022-12-22T23:48:15.497Z,-2.60
2022-12-22T23:50:46.328Z,-2.50
2022-12-22T23:53:13.602Z,-2.50
2022-12-22T23:55:48.006Z,-2.50
2022-12-22T23:58:15.507Z,-2.40
